createdAt,value
2017-05-23T00:00:11.923Z,0
2017-05-23T00:01:11.907Z,0
2017-05-23T00:02:11.282Z,0
2017-05-23T00:03:11.876Z,0
2017-05-23T00:04:11.862Z,0
2017-05-23T00:05:11.837Z,0
2017-05-23T00:06:11.536Z,0
2017-05-23T00:07:11.529Z,0
2017-05-23T00:08:11.823Z,0
2017-05-23T00:09:11.484Z,0
2017-05-23T00:10:11.785Z,0
2017-05-23T00:11:11.759Z,0
2017-05-23T00:12:11.752Z,0
2017-05-23T00:13:11.733Z,0
2017-05-23T00:14:11.411Z,0
2017-05-23T00:15:11.722Z,0
2017-05-23T00:16:11.399Z,0
2017-05-23T00:17:11.679Z,0
2017-05-23T00:18:11.671Z,0
2017-05-23T00:19:11.645Z,0
2017-05-23T00:20:11.333Z,0
2017-05-23T00:21:11.635Z,0
2017-05-23T00:22:11.304Z,0
2017-05-23T00:23:11.598Z,0
2017-05-23T00:24:11.585Z,0
2017-05-23T00:25:11.564Z,0
2017-05-23T00:26:11.555Z,0
2017-05-23T00:27:11.539Z,0
2017-05-23T00:28:11.223Z,0
2017-05-23T00:29:11.519Z,0
2017-05-23T00:30:11.190Z,0
2017-05-23T00:31:11.183Z,0
2017-05-23T00:32:11.482Z,0
2017-05-23T00:33:11.455Z,0
2017-05-23T00:34:11.449Z,0
2017-05-23T00:35:11.480Z,0
2017-05-23T00:36:11.411Z,0
2017-05-23T00:37:11.391Z,0
2017-05-23T00:38:11.385Z,0
2017-05-23T00:39:11.440Z,0
2017-05-23T00:40:11.361Z,0
2017-05-23T00:41:11.341Z,0
2017-05-23T00:42:11.025Z,0
2017-05-23T00:43:11.327Z,0
2017-05-23T00:44:11.301Z,0
2017-05-23T00:45:11.295Z,0
2017-05-23T00:46:11.278Z,0
2017-05-23T00:47:11.327Z,0
2017-05-23T00:48:11.248Z,0
2017-05-23T00:49:11.238Z,0
2017-05-23T00:50:11.223Z,0
2017-05-23T00:51:11.201Z,0
2017-05-23T00:52:11.193Z,0
2017-05-23T00:53:11.178Z,0
2017-05-23T00:54:11.226Z,0
2017-05-23T00:55:11.152Z,0
2017-05-23T00:56:10.837Z,0
2017-05-23T00:57:10.816Z,0
2017-05-23T00:58:11.106Z,0
2017-05-23T00:59:11.089Z,0
2017-05-23T01:00:11.076Z,0
2017-05-23T01:01:11.058Z,0
2017-05-23T01:02:11.054Z,0
2017-05-23T01:03:11.033Z,0
2017-05-23T01:04:11.012Z,0
2017-05-23T01:05:11.005Z,0
2017-05-23T01:06:11.059Z,0
2017-05-23T01:07:10.685Z,0
2017-05-23T01:08:10.970Z,0
2017-05-23T01:09:10.951Z,0
2017-05-23T01:10:10.634Z,0
2017-05-23T01:11:10.613Z,0
2017-05-23T01:12:10.608Z,0
2017-05-23T01:13:10.893Z,0
2017-05-23T01:14:10.873Z,0
2017-05-23T01:15:10.865Z,0
2017-05-23T01:16:10.857Z,0
2017-05-23T01:17:10.545Z,0
2017-05-23T01:18:10.587Z,0
2017-05-23T01:19:10.801Z,0
2017-05-23T01:20:10.503Z,0
2017-05-23T01:21:10.780Z,0
2017-05-23T01:22:10.766Z,0
2017-05-23T01:23:10.781Z,0
2017-05-23T01:24:10.739Z,0
2017-05-23T01:25:10.733Z,0
2017-05-23T01:26:10.417Z,0
2017-05-23T01:27:10.413Z,0
2017-05-23T01:28:10.692Z,0
2017-05-23T01:29:10.662Z,0
2017-05-23T01:30:10.672Z,0
2017-05-23T01:31:10.646Z,0
2017-05-23T01:32:10.631Z,0
2017-05-23T01:33:10.627Z,0
2017-05-23T01:34:10.617Z,0
2017-05-23T01:35:10.608Z,0
2017-05-23T01:36:10.274Z,0
2017-05-23T01:37:10.255Z,0
2017-05-23T01:38:10.562Z,0
2017-05-23T01:39:10.546Z,0
2017-05-23T01:40:10.207Z,0
2017-05-23T01:41:10.520Z,0
2017-05-23T01:42:10.500Z,0
2017-05-23T01:43:10.555Z,0
2017-05-23T01:44:10.463Z,0
2017-05-23T01:45:10.155Z,0
2017-05-23T01:46:10.133Z,0
2017-05-23T01:47:10.424Z,0
2017-05-23T01:48:10.419Z,0
2017-05-23T01:49:10.404Z,0
2017-05-23T01:50:10.387Z,0
2017-05-23T01:51:10.376Z,0
2017-05-23T01:52:10.352Z,0
2017-05-23T01:53:10.347Z,0
2017-05-23T01:54:10.025Z,0
2017-05-23T01:55:10.309Z,0
2017-05-23T01:56:10.299Z,0
2017-05-23T01:57:09.981Z,0
2017-05-23T01:58:09.958Z,0
2017-05-23T01:59:09.949Z,0
2017-05-23T02:00:09.935Z,0
2017-05-23T02:01:09.910Z,0
2017-05-23T02:02:10.209Z,0
2017-05-23T02:03:10.194Z,0
2017-05-23T02:04:09.865Z,0
2017-05-23T02:05:09.863Z,0
2017-05-23T02:06:10.151Z,0
2017-05-23T02:07:10.141Z,0
2017-05-23T02:08:10.136Z,0
2017-05-23T02:09:10.104Z,0
2017-05-23T02:10:09.815Z,0
2017-05-23T02:11:09.774Z,0
2017-05-23T02:12:09.764Z,0
2017-05-23T02:13:10.044Z,0
2017-05-23T02:14:09.439Z,0
2017-05-23T02:15:10.020Z,0
2017-05-23T02:16:10.004Z,0
2017-05-23T02:17:09.692Z,0
2017-05-23T02:18:09.974Z,0
2017-05-23T02:19:09.967Z,0
2017-05-23T02:20:09.945Z,0
2017-05-23T02:21:09.937Z,0
2017-05-23T02:22:09.609Z,0
2017-05-23T02:23:09.606Z,0
2017-05-23T02:24:09.585Z,0
2017-05-23T02:25:09.881Z,0
2017-05-23T02:26:09.865Z,0
2017-05-23T02:27:09.543Z,0
2017-05-23T02:28:09.528Z,0
2017-05-23T02:29:09.818Z,0
2017-05-23T02:30:09.821Z,0
2017-05-23T02:31:09.791Z,0
2017-05-23T02:32:09.786Z,0
2017-05-23T02:33:09.158Z,0
2017-05-23T02:34:09.756Z,0
2017-05-23T02:35:09.743Z,0
2017-05-23T02:36:09.727Z,0
2017-05-23T02:37:09.703Z,0
2017-05-23T02:38:09.397Z,0
2017-05-23T02:39:09.374Z,0
2017-05-23T02:40:09.670Z,0
2017-05-23T02:41:09.344Z,0
2017-05-23T02:42:09.635Z,0
2017-05-23T02:43:09.616Z,0
2017-05-23T02:44:09.616Z,0
2017-05-23T02:45:09.581Z,0
2017-05-23T02:46:09.572Z,0
2017-05-23T02:47:09.547Z,0
2017-05-23T02:48:09.543Z,0
2017-05-23T02:49:09.541Z,0
2017-05-23T02:50:09.521Z,0
2017-05-23T02:51:09.498Z,0
2017-05-23T02:52:09.484Z,0
2017-05-23T02:53:09.471Z,0
2017-05-23T02:54:09.470Z,4
2017-05-23T02:55:09.441Z,4
2017-05-23T02:56:09.423Z,0
2017-05-23T02:57:09.416Z,4
2017-05-23T02:58:09.401Z,4
2017-05-23T02:59:09.400Z,4
2017-05-23T03:00:09.374Z,4
2017-05-23T03:01:09.350Z,8
2017-05-23T03:02:09.339Z,8
2017-05-23T03:03:09.367Z,12
2017-05-23T03:04:09.317Z,12
2017-05-23T03:05:09.299Z,16
2017-05-23T03:06:09.292Z,12
2017-05-23T03:07:09.277Z,16
2017-05-23T03:08:09.281Z,20
2017-05-23T03:09:09.241Z,20
2017-05-23T03:10:09.223Z,28
2017-05-23T03:11:09.202Z,32
2017-05-23T03:12:09.192Z,40
2017-05-23T03:13:09.231Z,44
2017-05-23T03:14:09.171Z,52
2017-05-23T03:15:09.157Z,56
2017-05-23T03:16:09.148Z,72
2017-05-23T03:17:09.128Z,80
2017-05-23T03:18:09.118Z,84
2017-05-23T03:19:08.804Z,100
2017-05-23T03:20:08.772Z,108
2017-05-23T03:21:09.103Z,124
2017-05-23T03:22:09.055Z,144
2017-05-23T03:23:09.036Z,148
2017-05-23T03:24:09.014Z,136
2017-05-23T03:25:09.015Z,176
2017-05-23T03:26:08.689Z,156
2017-05-23T03:27:08.985Z,140
2017-05-23T03:28:08.667Z,140
2017-05-23T03:29:08.945Z,140
2017-05-23T03:30:08.937Z,180
2017-05-23T03:31:08.925Z,224
2017-05-23T03:32:08.602Z,240
2017-05-23T03:33:08.580Z,236
2017-05-23T03:34:08.581Z,252
2017-05-23T03:35:08.263Z,316
2017-05-23T03:36:08.859Z,392
2017-05-23T03:37:08.531Z,408
2017-05-23T03:38:08.822Z,392
2017-05-23T03:39:08.802Z,388
2017-05-23T03:40:08.795Z,424
2017-05-23T03:41:08.773Z,472
2017-05-23T03:42:08.754Z,492
2017-05-23T03:43:08.756Z,556
2017-05-23T03:44:08.733Z,620
2017-05-23T03:45:08.415Z,624
2017-05-23T03:46:08.093Z,648
2017-05-23T03:47:08.701Z,940
2017-05-23T03:48:08.373Z,1024
2017-05-23T03:49:08.660Z,1052
2017-05-23T03:50:08.351Z,1184
2017-05-23T03:51:08.626Z,1140
2017-05-23T03:52:08.619Z,1180
2017-05-23T03:53:08.603Z,1400
2017-05-23T03:54:08.591Z,1528
2017-05-23T03:55:08.577Z,1628
2017-05-23T03:56:08.569Z,1724
2017-05-23T03:57:08.555Z,1628
2017-05-23T03:58:08.527Z,1572
2017-05-23T03:59:08.519Z,1492
2017-05-23T04:00:08.204Z,1460
2017-05-23T04:01:08.503Z,1748
2017-05-23T04:02:08.483Z,1700
2017-05-23T04:03:08.481Z,1620
2017-05-23T04:04:08.165Z,2212
2017-05-23T04:05:08.441Z,2320
2017-05-23T04:06:08.133Z,1988
2017-05-23T04:07:08.428Z,2060
2017-05-23T04:08:08.398Z,2076
2017-05-23T04:09:08.392Z,2260
2017-05-23T04:10:08.386Z,2204
2017-05-23T04:11:08.370Z,2220
2017-05-23T04:12:08.042Z,2316
2017-05-23T04:13:08.029Z,2540
2017-05-23T04:14:08.031Z,2764
2017-05-23T04:15:08.005Z,2848
2017-05-23T04:16:08.297Z,2992
2017-05-23T04:17:08.286Z,3796
2017-05-23T04:18:07.965Z,3960
2017-05-23T04:19:08.258Z,4692
2017-05-23T04:20:07.925Z,4580
2017-05-23T04:21:07.918Z,4388
2017-05-23T04:22:08.200Z,4916
2017-05-23T04:23:08.218Z,4692
2017-05-23T04:24:08.188Z,4552
2017-05-23T04:25:07.871Z,5344
2017-05-23T04:26:08.157Z,4772
2017-05-23T04:27:08.142Z,4880
2017-05-23T04:28:08.154Z,4592
2017-05-23T04:29:07.821Z,4216
2017-05-23T04:30:07.798Z,5440
2017-05-23T04:31:08.094Z,6352
2017-05-23T04:32:08.069Z,6548
2017-05-23T04:33:08.064Z,6592
2017-05-23T04:34:08.040Z,8344
2017-05-23T04:35:08.021Z,7784
2017-05-23T04:36:08.007Z,6308
2017-05-23T04:37:07.998Z,5292
2017-05-23T04:38:07.384Z,5684
2017-05-23T04:39:07.972Z,5736
2017-05-23T04:40:07.660Z,6144
2017-05-23T04:41:07.639Z,6376
2017-05-23T04:42:07.927Z,6108
2017-05-23T04:43:07.609Z,5752
2017-05-23T04:44:07.591Z,5908
2017-05-23T04:45:07.582Z,8872
2017-05-23T04:46:07.864Z,7720
2017-05-23T04:47:07.864Z,7752
2017-05-23T04:48:07.854Z,6848
2017-05-23T04:49:07.521Z,5704
2017-05-23T04:50:07.503Z,6012
2017-05-23T04:51:07.500Z,5252
2017-05-23T04:52:07.482Z,4712
2017-05-23T04:53:07.778Z,5024
2017-05-23T04:54:07.753Z,5484
2017-05-23T04:55:07.449Z,5188
2017-05-23T04:56:07.411Z,4600
2017-05-23T04:57:07.419Z,4576
2017-05-23T04:58:07.390Z,4568
2017-05-23T04:59:07.377Z,4764
2017-05-23T05:00:07.062Z,4632
2017-05-23T05:01:07.351Z,5636
2017-05-23T05:02:07.027Z,7640
2017-05-23T05:03:07.637Z,6596
2017-05-23T05:04:07.308Z,6112
2017-05-23T05:05:07.598Z,8100
2017-05-23T05:06:07.586Z,7180
2017-05-23T05:07:07.264Z,9348
2017-05-23T05:08:07.244Z,9220
2017-05-23T05:09:07.553Z,8256
2017-05-23T05:10:07.232Z,10592
2017-05-23T05:11:07.509Z,9844
2017-05-23T05:12:07.491Z,12412
2017-05-23T05:13:07.485Z,12428
2017-05-23T05:14:07.161Z,9724
2017-05-23T05:15:07.148Z,14676
2017-05-23T05:16:07.139Z,12472
2017-05-23T05:17:07.424Z,11520
2017-05-23T05:18:07.110Z,13484
2017-05-23T05:19:07.102Z,12668
2017-05-23T05:20:06.783Z,11928
2017-05-23T05:21:07.063Z,15720
2017-05-23T05:22:07.047Z,16224
2017-05-23T05:23:07.034Z,17100
2017-05-23T05:24:07.321Z,15260
2017-05-23T05:25:07.317Z,13172
2017-05-23T05:26:07.294Z,13180
2017-05-23T05:27:07.295Z,12000
2017-05-23T05:28:07.267Z,12372
2017-05-23T05:29:07.253Z,12256
2017-05-23T05:30:07.246Z,11844
2017-05-23T05:31:06.618Z,11140
2017-05-23T05:32:07.202Z,14688
2017-05-23T05:33:07.206Z,13040
2017-05-23T05:34:07.181Z,15848
2017-05-23T05:35:07.182Z,16164
2017-05-23T05:36:06.849Z,17220
2017-05-23T05:37:06.843Z,19360
2017-05-23T05:38:06.824Z,20928
2017-05-23T05:39:07.116Z,21824
2017-05-23T05:40:06.803Z,21024
2017-05-23T05:41:07.085Z,20800
2017-05-23T05:42:07.078Z,18332
2017-05-23T05:43:07.051Z,17488
2017-05-23T05:44:06.751Z,22144
2017-05-23T05:45:06.735Z,19040
2017-05-23T05:46:07.020Z,22112
2017-05-23T05:47:06.717Z,24064
2017-05-23T05:48:06.691Z,25440
2017-05-23T05:49:06.673Z,24448
2017-05-23T05:50:06.957Z,16604
2017-05-23T05:51:06.934Z,20512
2017-05-23T05:52:06.627Z,27552
2017-05-23T05:53:06.923Z,23936
2017-05-23T05:54:06.595Z,18552
2017-05-23T05:55:06.578Z,21824
2017-05-23T05:56:06.575Z,26720
2017-05-23T05:57:06.565Z,24352
2017-05-23T05:58:06.542Z,22368
2017-05-23T05:59:06.830Z,24992
2017-05-23T06:00:06.826Z,18548
2017-05-23T06:01:06.505Z,15132
2017-05-23T06:02:06.793Z,16736
2017-05-23T06:03:06.779Z,20320
2017-05-23T06:04:06.454Z,24160
2017-05-23T06:05:06.747Z,26208
2017-05-23T06:06:06.740Z,27392
2017-05-23T06:07:06.716Z,30464
2017-05-23T06:08:06.708Z,33760
2017-05-23T06:09:06.401Z,29088
2017-05-23T06:10:06.682Z,30368
2017-05-23T06:11:06.662Z,27744
2017-05-23T06:12:06.642Z,25984
2017-05-23T06:13:06.662Z,34080
2017-05-23T06:14:06.610Z,30272
2017-05-23T06:15:06.603Z,29664
2017-05-23T06:16:06.590Z,27488
2017-05-23T06:17:06.573Z,26656
2017-05-23T06:18:06.570Z,31552
2017-05-23T06:19:06.553Z,31456
2017-05-23T06:20:06.540Z,31136
2017-05-23T06:21:06.526Z,34912
2017-05-23T06:22:06.207Z,33920
2017-05-23T06:23:06.189Z,34304
2017-05-23T06:24:06.474Z,30176
2017-05-23T06:25:06.157Z,31072
2017-05-23T06:26:06.452Z,25312
2017-05-23T06:27:06.449Z,36096
2017-05-23T06:28:06.420Z,33440
2017-05-23T06:29:06.406Z,31904
2017-05-23T06:30:06.401Z,45728
2017-05-23T06:31:06.388Z,39264
2017-05-23T06:32:06.374Z,44032
2017-05-23T06:33:06.354Z,39104
2017-05-23T06:34:06.374Z,38560
2017-05-23T06:35:06.331Z,33984
2017-05-23T06:36:06.313Z,53120
2017-05-23T06:37:06.310Z,45696
2017-05-23T06:38:05.974Z,25312
2017-05-23T06:39:05.977Z,31488
2017-05-23T06:40:06.265Z,25088
2017-05-23T06:41:06.247Z,29920
2017-05-23T06:42:05.923Z,49696
2017-05-23T06:43:06.209Z,58208
2017-05-23T06:44:06.206Z,39264
2017-05-23T06:45:05.880Z,47168
2017-05-23T06:46:06.172Z,54688
2017-05-23T06:47:06.151Z,43296
2017-05-23T06:48:06.146Z,45600
2017-05-23T06:49:05.830Z,48800
2017-05-23T06:50:06.123Z,49600
2017-05-23T06:51:06.101Z,41216
2017-05-23T06:52:05.783Z,44544
2017-05-23T06:53:05.777Z,33600
2017-05-23T06:54:06.058Z,40128
2017-05-23T06:55:05.737Z,130368
2017-05-23T06:56:06.031Z,73120
2017-05-23T06:57:05.724Z,48864
2017-05-23T06:58:05.999Z,40256
2017-05-23T06:59:05.691Z,38624
2017-05-23T07:00:05.983Z,33280
2017-05-23T07:01:05.360Z,40800
2017-05-23T07:02:05.943Z,40928
2017-05-23T07:03:05.934Z,39840
2017-05-23T07:04:05.625Z,38080
2017-05-23T07:05:05.611Z,46240
2017-05-23T07:06:05.901Z,53504
2017-05-23T07:07:05.588Z,52064
2017-05-23T07:08:05.876Z,50400
2017-05-23T07:09:05.862Z,53152
2017-05-23T07:10:05.245Z,77984
2017-05-23T07:11:05.222Z,45344
2017-05-23T07:12:05.219Z,46944
2017-05-23T07:13:05.493Z,46528
2017-05-23T07:14:05.550Z,32576
2017-05-23T07:15:05.477Z,50080
2017-05-23T07:16:05.461Z,42784
2017-05-23T07:17:05.746Z,62240
2017-05-23T07:18:05.434Z,42208
2017-05-23T07:19:05.721Z,32640
2017-05-23T07:20:05.423Z,35104
2017-05-23T07:21:05.687Z,27840
2017-05-23T07:22:05.688Z,31744
2017-05-23T07:23:05.669Z,57024
2017-05-23T07:24:05.664Z,43328
2017-05-23T07:25:05.640Z,33600
2017-05-23T07:26:05.635Z,26720
2017-05-23T07:27:05.615Z,24128
2017-05-23T07:28:05.594Z,34560
2017-05-23T07:29:05.579Z,45504
2017-05-23T07:30:05.627Z,39808
2017-05-23T07:31:05.552Z,39520
2017-05-23T07:32:05.538Z,48000
2017-05-23T07:33:05.532Z,50848
2017-05-23T07:34:05.509Z,51296
2017-05-23T07:35:05.217Z,110464
2017-05-23T07:36:05.183Z,52064
2017-05-23T07:37:05.467Z,42144
2017-05-23T07:38:05.151Z,36512
2017-05-23T07:39:05.148Z,29248
2017-05-23T07:40:05.440Z,25152
2017-05-23T07:41:04.811Z,24576
2017-05-23T07:42:05.403Z,26496
2017-05-23T07:43:05.097Z,30464
2017-05-23T07:44:04.772Z,48160
2017-05-23T07:45:04.760Z,65408
2017-05-23T07:46:05.037Z,74464
2017-05-23T07:47:05.340Z,48096
2017-05-23T07:48:05.318Z,37632
2017-05-23T07:49:05.295Z,40736
2017-05-23T07:50:04.995Z,48480
2017-05-23T07:51:05.278Z,43616
2017-05-23T07:52:05.276Z,56512
2017-05-23T07:53:05.264Z,82656
2017-05-23T07:54:05.237Z,53760
2017-05-23T07:55:05.222Z,63296
2017-05-23T07:56:05.212Z,52896
2017-05-23T07:57:05.200Z,49728
2017-05-23T07:58:04.891Z,135296
2017-05-23T07:59:05.169Z,48896
2017-05-23T08:00:05.147Z,60960
2017-05-23T08:01:05.152Z,46080
2017-05-23T08:02:05.119Z,42752
2017-05-23T08:03:05.114Z,34816
2017-05-23T08:04:05.099Z,32672
2017-05-23T08:05:05.091Z,37184
2017-05-23T08:06:05.073Z,44864
2017-05-23T08:07:04.757Z,49568
2017-05-23T08:08:05.045Z,62336
2017-05-23T08:09:05.045Z,71328
2017-05-23T08:10:05.025Z,66272
2017-05-23T08:11:04.705Z,58432
2017-05-23T08:12:04.700Z,51328
2017-05-23T08:13:04.999Z,52736
2017-05-23T08:14:04.976Z,49536
2017-05-23T08:15:04.654Z,60352
2017-05-23T08:16:04.950Z,56960
2017-05-23T08:17:04.631Z,38976
2017-05-23T08:18:04.603Z,41120
2017-05-23T08:19:04.607Z,54112
2017-05-23T08:20:04.631Z,52928
2017-05-23T08:21:04.568Z,56480
2017-05-23T08:22:04.554Z,50688
2017-05-23T08:23:04.846Z,51296
2017-05-23T08:24:04.829Z,60672
2017-05-23T08:25:04.831Z,46144
2017-05-23T08:26:04.803Z,63072
2017-05-23T08:27:04.816Z,59424
2017-05-23T08:28:04.472Z,84672
2017-05-23T08:29:04.772Z,72576
2017-05-23T08:30:04.743Z,45376
2017-05-23T08:31:04.651Z,71168
2017-05-23T08:32:04.729Z,56288
2017-05-23T08:33:04.766Z,42432
2017-05-23T08:34:04.693Z,43616
2017-05-23T08:35:04.691Z,58208
2017-05-23T08:36:04.663Z,50080
2017-05-23T08:37:04.651Z,49152
2017-05-23T08:38:04.642Z,118400
2017-05-23T08:39:04.637Z,148800
2017-05-23T08:40:04.312Z,55904
2017-05-23T08:41:04.612Z,162176
2017-05-23T08:42:04.655Z,66496
2017-05-23T08:43:04.582Z,112512
2017-05-23T08:44:04.585Z,56736
2017-05-23T08:45:04.550Z,46976
2017-05-23T08:46:04.533Z,46848
2017-05-23T08:47:04.223Z,44032
2017-05-23T08:48:03.915Z,47424
2017-05-23T08:49:04.215Z,67328
2017-05-23T08:50:04.498Z,73920
2017-05-23T08:51:04.487Z,84000
2017-05-23T08:52:04.479Z,57632
2017-05-23T08:53:04.148Z,62560
2017-05-23T08:54:04.437Z,175968
2017-05-23T08:55:04.632Z,63872
2017-05-23T08:56:04.625Z,51200
2017-05-23T08:57:04.401Z,49600
2017-05-23T08:58:04.390Z,58048
2017-05-23T08:59:04.078Z,52256
2017-05-23T09:00:04.367Z,38656
2017-05-23T09:01:04.350Z,32160
2017-05-23T09:02:04.033Z,41760
2017-05-23T09:03:04.034Z,67616
2017-05-23T09:04:03.719Z,65632
2017-05-23T09:05:04.499Z,88256
2017-05-23T09:06:04.197Z,68128
2017-05-23T09:07:03.974Z,61888
2017-05-23T09:08:03.963Z,59968
2017-05-23T09:09:04.250Z,84640
2017-05-23T09:10:03.927Z,111296
2017-05-23T09:11:03.920Z,63072
2017-05-23T09:12:03.916Z,55456
2017-05-23T09:13:03.885Z,50848
2017-05-23T09:14:03.893Z,59072
2017-05-23T09:15:03.874Z,54656
2017-05-23T09:16:04.172Z,122784
2017-05-23T09:17:03.863Z,120384
2017-05-23T09:18:03.830Z,126208
2017-05-23T09:19:03.825Z,74592
2017-05-23T09:20:03.798Z,58880
2017-05-23T09:21:03.807Z,72864
2017-05-23T09:22:03.779Z,98656
2017-05-23T09:23:03.783Z,47840
2017-05-23T09:24:03.749Z,44128
2017-05-23T09:25:04.040Z,47264
2017-05-23T09:26:04.025Z,50080
2017-05-23T09:27:17.653Z,49536
2017-05-23T09:28:03.696Z,51136
2017-05-23T09:29:03.742Z,52864
2017-05-23T09:30:03.676Z,44864
2017-05-23T09:31:04.162Z,36608
2017-05-23T09:32:03.848Z,54304
2017-05-23T09:33:03.940Z,106560
2017-05-23T09:34:03.919Z,65120
2017-05-23T09:35:03.911Z,101504
2017-05-23T09:36:04.101Z,68096
2017-05-23T09:37:03.590Z,82560
2017-05-23T09:38:03.880Z,138720
2017-05-23T09:39:03.862Z,165568
2017-05-23T09:40:03.857Z,72704
2017-05-23T09:41:03.840Z,56480
2017-05-23T09:42:03.833Z,43584
2017-05-23T09:43:03.817Z,48224
2017-05-23T09:44:03.799Z,59264
2017-05-23T09:45:03.792Z,60512
2017-05-23T09:46:03.778Z,134464
2017-05-23T09:47:03.764Z,63040
2017-05-23T09:48:03.755Z,61504
2017-05-23T09:49:03.747Z,43200
2017-05-23T09:50:03.733Z,35168
2017-05-23T09:51:03.717Z,35584
2017-05-23T09:52:03.422Z,38048
2017-05-23T09:53:03.702Z,39232
2017-05-23T09:54:03.387Z,46112
2017-05-23T09:55:03.678Z,52864
2017-05-23T09:56:03.671Z,64512
2017-05-23T09:57:03.350Z,128864
2017-05-23T09:58:03.650Z,115040
2017-05-23T09:59:03.334Z,108000
2017-05-23T10:00:03.622Z,71072
2017-05-23T10:01:03.615Z,60352
2017-05-23T10:02:03.826Z,56160
2017-05-23T10:03:03.594Z,51776
2017-05-23T10:04:03.585Z,47296
2017-05-23T10:05:03.576Z,50944
2017-05-23T10:06:03.568Z,60160
2017-05-23T10:07:16.947Z,50688
2017-05-23T10:08:03.545Z,42816
2017-05-23T10:09:03.231Z,37984
2017-05-23T10:10:03.224Z,32128
2017-05-23T10:11:03.533Z,38080
2017-05-23T10:12:03.510Z,132832
2017-05-23T10:13:03.491Z,65472
2017-05-23T10:14:03.480Z,140672
2017-05-23T10:15:03.466Z,146240
2017-05-23T10:16:03.456Z,141120
2017-05-23T10:17:03.448Z,158752
2017-05-23T10:18:03.435Z,109472
2017-05-23T10:19:03.423Z,45632
2017-05-23T10:20:03.409Z,53408
2017-05-23T10:21:03.397Z,169632
2017-05-23T10:22:03.093Z,47872
2017-05-23T10:23:03.386Z,45120
2017-05-23T10:24:03.365Z,48704
2017-05-23T10:25:03.366Z,53088
2017-05-23T10:26:03.348Z,56512
2017-05-23T10:27:03.031Z,139584
2017-05-23T10:28:03.330Z,184416
2017-05-23T10:29:03.325Z,53120
2017-05-23T10:30:03.309Z,49280
2017-05-23T10:31:03.007Z,50752
2017-05-23T10:32:03.284Z,53888
2017-05-23T10:33:02.974Z,57536
2017-05-23T10:34:03.266Z,61792
2017-05-23T10:35:03.257Z,157216
2017-05-23T10:36:03.240Z,75360
2017-05-23T10:37:03.303Z,95424
2017-05-23T10:38:03.219Z,175136
2017-05-23T10:39:02.909Z,171648
2017-05-23T10:40:02.892Z,165632
2017-05-23T10:41:03.182Z,159008
2017-05-23T10:42:03.174Z,160032
2017-05-23T10:43:03.064Z,150336
2017-05-23T10:44:02.846Z,142976
2017-05-23T10:45:03.142Z,147424
2017-05-23T10:46:03.132Z,160640
2017-05-23T10:47:03.322Z,51104
2017-05-23T10:48:03.315Z,167520
2017-05-23T10:49:03.096Z,162432
2017-05-23T10:50:03.087Z,151968
2017-05-23T10:51:02.779Z,100544
2017-05-23T10:52:03.066Z,151392
2017-05-23T10:53:03.061Z,119264
2017-05-23T10:54:03.051Z,105440
2017-05-23T10:55:03.034Z,169824
2017-05-23T10:56:02.725Z,162528
2017-05-23T10:57:03.013Z,152704
2017-05-23T10:58:03.003Z,151648
2017-05-23T10:59:02.695Z,154656
2017-05-23T11:00:02.980Z,129056
2017-05-23T11:01:02.972Z,35296
2017-05-23T11:02:02.965Z,30784
2017-05-23T11:03:02.964Z,39328
2017-05-23T11:04:02.939Z,164512
2017-05-23T11:05:02.326Z,170432
2017-05-23T11:06:02.920Z,121632
2017-05-23T11:07:02.614Z,110144
2017-05-23T11:08:02.602Z,127840
2017-05-23T11:09:02.802Z,126272
2017-05-23T11:10:02.577Z,80928
2017-05-23T11:11:02.869Z,60736
2017-05-23T11:12:02.571Z,62208
2017-05-23T11:13:02.547Z,60608
2017-05-23T11:14:02.757Z,98208
2017-05-23T11:15:15.922Z,125728
2017-05-23T11:16:02.824Z,141632
2017-05-23T11:17:02.519Z,132544
2017-05-23T11:18:02.502Z,69504
2017-05-23T11:19:02.997Z,72704
2017-05-23T11:20:02.483Z,122080
2017-05-23T11:21:02.478Z,97824
2017-05-23T11:22:02.468Z,47200
2017-05-23T11:23:02.151Z,58368
2017-05-23T11:24:02.949Z,64224
2017-05-23T11:25:02.735Z,71520
2017-05-23T11:26:02.726Z,156608
2017-05-23T11:27:02.718Z,104512
2017-05-23T11:28:02.401Z,160672
2017-05-23T11:29:02.702Z,82400
2017-05-23T11:30:02.695Z,118240
2017-05-23T11:31:02.675Z,134016
2017-05-23T11:32:02.366Z,104576
2017-05-23T11:33:02.356Z,96384
2017-05-23T11:34:02.346Z,80384
2017-05-23T11:35:02.641Z,72064
2017-05-23T11:36:02.323Z,70240
2017-05-23T11:37:02.333Z,77824
2017-05-23T11:38:02.304Z,91616
2017-05-23T11:39:02.306Z,64032
2017-05-23T11:40:02.594Z,63840
2017-05-23T11:41:02.280Z,74208
2017-05-23T11:42:02.271Z,62208
2017-05-23T11:43:02.562Z,96960
2017-05-23T11:44:02.626Z,86112
2017-05-23T11:45:02.550Z,68480
2017-05-23T11:46:02.532Z,72640
2017-05-23T11:47:02.531Z,150240
2017-05-23T11:48:02.518Z,143456
2017-05-23T11:49:02.225Z,132096
2017-05-23T11:50:02.201Z,122272
2017-05-23T11:51:02.495Z,104384
2017-05-23T11:52:02.520Z,114880
2017-05-23T11:53:02.476Z,103968
2017-05-23T11:54:02.469Z,88928
2017-05-23T11:55:02.462Z,77152
2017-05-23T11:56:02.164Z,65952
2017-05-23T11:57:02.444Z,66976
2017-05-23T11:58:02.433Z,85632
2017-05-23T11:59:02.126Z,137824
2017-05-23T12:00:02.424Z,180384
2017-05-23T12:01:02.410Z,180864
2017-05-23T12:02:02.410Z,159776
2017-05-23T12:03:02.398Z,74944
2017-05-23T12:04:02.393Z,56832
2017-05-23T12:05:02.389Z,63904
2017-05-23T12:06:02.071Z,72384
2017-05-23T12:07:02.368Z,65664
2017-05-23T12:08:02.357Z,127936
2017-05-23T12:09:02.355Z,116032
2017-05-23T12:10:02.341Z,57216
2017-05-23T12:11:02.336Z,51456
2017-05-23T12:12:02.339Z,49760
2017-05-23T12:13:02.324Z,46976
2017-05-23T12:14:02.012Z,44160
2017-05-23T12:15:02.307Z,42496
2017-05-23T12:16:02.068Z,41024
2017-05-23T12:17:01.994Z,52352
2017-05-23T12:18:01.987Z,56864
2017-05-23T12:19:01.981Z,72960
2017-05-23T12:20:02.272Z,67008
2017-05-23T12:21:01.961Z,92480
2017-05-23T12:22:01.653Z,63232
2017-05-23T12:23:01.943Z,60288
2017-05-23T12:24:02.244Z,56448
2017-05-23T12:25:02.236Z,53568
2017-05-23T12:26:02.224Z,60448
2017-05-23T12:27:02.216Z,89696
2017-05-23T12:28:02.213Z,73344
2017-05-23T12:29:02.208Z,91968
2017-05-23T12:30:02.186Z,117280
2017-05-23T12:31:02.181Z,85440
2017-05-23T12:32:02.183Z,90528
2017-05-23T12:33:01.573Z,106208
2017-05-23T12:34:02.163Z,113536
2017-05-23T12:35:02.185Z,114176
2017-05-23T12:36:02.146Z,106976
2017-05-23T12:37:02.153Z,67296
2017-05-23T12:38:01.831Z,76576
2017-05-23T12:39:02.123Z,76832
2017-05-23T12:40:02.116Z,113664
2017-05-23T12:41:01.506Z,56640
2017-05-23T12:42:02.095Z,46048
2017-05-23T12:43:02.098Z,44864
2017-05-23T12:44:01.182Z,35712
2017-05-23T12:45:02.084Z,34176
2017-05-23T12:46:02.063Z,37248
2017-05-23T12:47:01.757Z,46080
2017-05-23T12:48:02.066Z,59040
2017-05-23T12:49:02.048Z,86304
2017-05-23T12:50:02.030Z,84512
2017-05-23T12:51:01.739Z,70368
2017-05-23T12:52:02.022Z,63936
2017-05-23T12:53:02.018Z,62720
2017-05-23T12:54:02.004Z,115808
2017-05-23T12:55:01.691Z,134368
2017-05-23T12:56:01.985Z,124832
2017-05-23T12:57:01.976Z,75456
2017-05-23T12:58:01.966Z,43008
2017-05-23T12:59:01.663Z,38528
2017-05-23T13:00:01.947Z,40416
2017-05-23T13:01:01.939Z,42240
2017-05-23T13:02:01.933Z,44288
2017-05-23T13:03:01.930Z,43488
2017-05-23T13:04:01.913Z,42336
2017-05-23T13:05:01.002Z,41952
2017-05-23T13:06:01.895Z,45280
2017-05-23T13:07:01.885Z,42112
2017-05-23T13:08:01.943Z,45440
2017-05-23T13:09:01.268Z,56416
2017-05-23T13:10:01.258Z,106080
2017-05-23T13:11:01.851Z,151360
2017-05-23T13:12:01.542Z,75808
2017-05-23T13:13:01.843Z,49984
2017-05-23T13:14:01.818Z,62080
2017-05-23T13:15:01.821Z,54720
2017-05-23T13:16:01.805Z,48896
2017-05-23T13:17:01.795Z,46752
2017-05-23T13:18:01.786Z,40352
2017-05-23T13:19:01.481Z,39776